Latest Weather Observations for Maatsuyker Island

IDT60801

Issued at 7:31 am EST Tuesday 30 August 2016 (issued every 30 minutes, with the page automatically refreshed every 10 minutes)

About weather observations | Map of weather stations | Latest weather observations for TAS | Other Formats
Station Details ID: 094041 Name: MAATSUYKER ISLAND LIGHTHOUSE Lat: -43.66 Lon: 146.27 Height: 146.5 m
Data from the previous 72 hours. | See also: Recent months at Maatsuyker Island
Date/Time
EST
Temp
°C
App
Temp
°C
Dew
Point
°C
Rel
Hum
%
Delta-T
°C
Wind Press
QNH
hPa
Press
MSL
hPa
Rain since
9am
mm
Dir  Spd
km/h
Gust
km/h
Spd
kts
Gust
kts
30/07:30am 10.5 8.1 2.3 57 3.5 NE 4 11 2 6 1021.8 - 0.0
30/07:00am 10.1 6.6 1.5 55 3.6 N 9 15 5 8 1021.7 - 0.0
30/06:30am 9.9 7.1 1.8 57 3.4 ENE 6 9 3 5 1021.8 - 0.0
30/06:00am 9.3 5.8 1.0 56 3.4 ENE 9 11 5 6 1021.9 1022.2 0.0
30/05:30am 8.4 5.6 2.2 65 2.6 ESE 6 11 3 6 1022.1 - 0.0
30/05:00am 8.3 6.5 3.2 70 2.2 ESE 2 9 1 5 1022.2 - 0.0
30/04:30am 7.9 5.8 3.7 75 1.8 NNW 4 9 2 5 1021.9 - 0.0
30/04:00am 8.0 5.4 3.3 72 2.0 N 6 9 3 5 1021.2 - 0.0
30/03:30am 7.6 4.9 5.8 88 0.8 ENE 9 15 5 8 1021.2 - 0.0
30/03:00am 7.8 5.1 5.8 87 0.9 ENE 9 17 5 9 1021.4 1021.7 0.0
30/02:30am 7.6 5.4 5.4 86 1.0 E 6 11 3 6 1021.8 - 0.0
30/02:00am 7.5 5.4 5.7 88 0.8 NNE 6 9 3 5 1022.8 - 0.0
30/01:30am 6.8 4.1 5.5 91 0.6 N 9 11 5 6 1023.2 - 0.0
30/01:00am 7.0 4.2 5.2 88 0.8 ENE 9 13 5 7 1023.7 - 0.0
30/12:30am 7.6 6.6 5.4 86 1.0 CALM 0 6 0 3 1023.3 - 0.0
30/12:00am 8.0 5.9 5.6 85 1.1 NE 6 11 3 6 1023.5 1023.7 0.0
 
Date/Time
EST
Temp
°C
App
Temp
°C
Dew
Point
°C
Rel
Hum
%
Delta-T
°C
Wind Press
QNH
hPa
Press
MSL
hPa
Rain since
9am
mm
Dir  Spd
km/h
Gust
km/h
Spd
kts
Gust
kts
29/11:30pm 7.5 5.2 4.8 83 1.2 NNW 6 9 3 5 1023.2 - 0.0
29/11:00pm 7.6 5.2 5.1 84 1.1 NNW 7 11 4 6 1023.3 - 0.0
29/10:30pm 7.4 5.0 4.4 81 1.3 NNW 6 11 3 6 1023.3 - 0.0
29/10:00pm 7.1 5.4 4.1 81 1.3 ENE 2 7 1 4 1023.7 - 0.0
29/09:30pm 7.2 4.7 3.9 79 1.4 N 6 9 3 5 1023.9 - 0.0
29/09:00pm 7.1 5.7 3.6 78 1.5 CALM 0 0 0 0 1024.1 1024.3 0.0
29/08:30pm 7.3 5.5 3.6 77 1.6 NNE 2 6 1 3 1024.2 - 0.0
29/08:00pm 7.5 5.3 3.5 76 1.7 NNE 4 7 2 4 1024.1 - 0.0
29/07:30pm 7.9 6.4 3.2 72 2.0 CALM 0 7 0 4 1023.9 - 0.0
29/07:00pm 8.0 6.6 3.3 72 2.0 CALM 0 0 0 0 1023.9 - 0.0
29/06:30pm 7.9 5.2 3.5 74 1.9 SW 7 9 4 5 1023.9 - 0.0
29/06:00pm 8.0 4.8 3.3 72 2.0 W 9 13 5 7 1023.9 1024.1 0.0
29/05:30pm 8.7 4.8 3.6 70 2.2 W 13 17 7 9 1023.7 - 0.0
29/05:00pm 8.8 4.9 3.5 69 2.3 WNW 13 17 7 9 1023.5 - 0.0
29/04:30pm 9.6 4.8 2.8 62 2.9 W 17 24 9 13 1023.1 - 0.0
29/04:00pm 10.5 5.3 3.4 61 3.1 WNW 20 26 11 14 1023.0 - 0.0
29/03:30pm 10.8 5.6 3.3 60 3.3 WNW 20 24 11 13 1022.7 - 0.0
29/03:00pm 10.4 4.8 3.3 61 3.1 NW 22 30 12 16 1022.6 1022.9 0.0
29/02:30pm 9.4 2.6 2.9 64 2.8 NW 28 33 15 18 1022.6 - 0.0
29/02:00pm 9.2 3.1 2.6 63 2.8 NNW 24 32 13 17 1022.7 - 0.0
29/01:30pm 9.2 2.0 2.9 65 2.7 NNW 30 37 16 20 1022.7 - 0.0
29/01:00pm 8.9 1.3 3.1 67 2.5 NW 32 35 17 19 1022.8 - 0.0
29/12:30pm 9.0 1.2 2.9 65 2.6 NW 33 41 18 22 1023.0 - 0.0
29/12:00pm 8.9 1.3 2.8 65 2.6 NW 32 39 17 21 1023.2 1023.5 0.0
29/11:30am 8.9 2.1 3.3 68 2.4 NW 28 32 15 17 1023.3 - 0.0
29/11:00am 8.8 2.8 3.5 69 2.3 NNW 24 30 13 16 1023.2 - 0.0
29/10:30am 8.5 2.9 3.4 70 2.2 NNW 22 30 12 16 1023.3 - 0.0
29/10:00am 8.5 1.8 3.4 70 2.2 NNW 28 37 15 20 1023.6 - 0.0
29/09:30am 8.5 1.7 3.1 69 2.3 NNW 28 35 15 19 1023.6 - 0.0
29/09:00am 8.2 3.0 3.6 73 2.0 NNW 20 32 11 17 1023.5 1023.7 0.0
29/08:30am 8.2 2.1 3.0 70 2.2 NNW 24 30 13 16 1023.1 - 0.0
29/08:00am 8.3 0.6 3.2 70 2.2 NNW 33 41 18 22 1022.7 - 0.0
29/07:30am 8.2 0.4 2.8 69 2.3 NW 33 39 18 21 1022.6 - 0.0
29/07:00am 8.1 -0.1 2.9 70 2.2 NW 35 41 19 22 1022.3 - 0.0
29/06:30am 8.1 -1.1 3.4 72 2.0 NW 41 46 22 25 1021.8 - 0.0
29/06:00am 8.0 -0.1 3.3 72 2.0 NW 35 48 19 26 1021.6 1021.9 0.0
29/05:30am 8.1 -1.4 3.7 74 1.9 NW 43 48 23 26 1021.5 - 0.0
29/05:00am 8.0 -0.4 3.6 74 1.9 NNW 37 44 20 24 1021.1 - 0.0
29/04:30am 7.9 -2.0 2.7 69 2.2 NW 44 52 24 28 1020.8 - 0.0
29/04:00am 7.7 -0.4 3.5 75 1.8 NW 35 43 19 23 1020.8 - 0.0
29/03:30am 7.9 -2.4 2.9 70 2.1 NW 46 54 25 29 1020.9 - 0.0
29/03:00am 7.9 -2.0 2.7 69 2.2 NW 44 50 24 27 1020.7 1021.0 0.0
29/02:30am 8.0 -2.6 3.1 71 2.1 NW 48 57 26 31 1020.7 - 0.0
29/02:00am 8.2 -3.3 2.2 66 2.5 NW 52 57 28 31 1020.3 - 0.0
29/01:30am 8.1 -3.5 1.8 64 2.6 NW 52 59 28 32 1020.3 - 0.0
29/01:00am 8.1 -2.6 2.4 67 2.4 NW 48 56 26 30 1020.0 - 0.0
29/12:30am 8.1 -3.1 2.1 66 2.5 NW 50 61 27 33 1019.8 - 0.0
29/12:00am 7.9 -2.7 3.0 71 2.1 NW 48 54 26 29 1019.7 1019.9 0.0
 
Date/Time
EST
Temp
°C
App
Temp
°C
Dew
Point
°C
Rel
Hum
%
Delta-T
°C
Wind Press
QNH
hPa
Press
MSL
hPa
Rain since
9am
mm
Dir  Spd
km/h
Gust
km/h
Spd
kts
Gust
kts
28/11:30pm 8.3 -3.4 0.9 59 3.0 NW 52 57 28 31 1019.4 - 0.0
28/11:00pm 8.3 -2.5 2.1 65 2.6 NW 48 56 26 30 1019.3 - 0.0
28/10:30pm 8.0 -3.4 2.8 70 2.2 NW 52 59 28 32 1019.4 - 0.0
28/10:00pm 8.0 -3.5 2.5 68 2.3 NW 52 57 28 31 1019.1 - 0.0
28/09:30pm 7.9 -4.5 1.6 64 2.6 NW 56 61 30 33 1018.9 - 0.0
28/09:00pm 7.5 -3.2 2.5 70 2.1 NNW 48 56 26 30 1018.9 1019.1 0.0
28/08:30pm 7.6 -3.0 2.9 72 2.0 NNW 48 57 26 31 1018.6 - 0.0
28/08:00pm 7.8 -4.5 2.3 68 2.3 NW 56 67 30 36 1018.3 - 0.0
28/07:30pm 8.0 -4.2 0.5 59 3.0 NW 54 63 29 34 1018.0 - 0.0
28/07:00pm 8.1 -4.6 1.0 61 2.9 NW 57 63 31 34 1017.7 - 0.0
28/06:30pm 7.7 -3.4 2.2 68 2.3 NW 50 57 27 31 1017.5 - 0.0
28/06:00pm 7.9 -4.2 3.2 72 2.0 NW 56 65 30 35 1016.9 1017.1 0.0
28/05:30pm 7.8 -4.3 1.2 63 2.7 NW 54 61 29 33 1016.7 - 0.0
28/05:00pm 7.9 -4.6 0.7 60 2.9 NW 56 63 30 34 1016.2 - 0.0
28/04:30pm 6.9 -5.7 1.2 67 2.3 NW 57 69 31 37 1016.2 - 0.0
28/04:00pm 8.0 -4.6 0.2 58 3.1 NW 56 65 30 35 1015.7 - 0.0
28/03:30pm 8.4 -4.1 0.8 59 3.1 NW 56 65 30 35 1015.7 - 0.0
28/03:00pm 8.4 -4.0 -1.2 51 3.7 NW 54 59 29 32 1015.8 1016.1 0.0
28/02:30pm 8.8 -2.9 -1.2 49 3.9 NW 50 57 27 31 1015.9 - 0.0
28/02:00pm 8.2 -4.7 -2.1 48 3.9 NW 56 61 30 33 1015.7 - 0.0
28/01:30pm 8.7 -4.1 -1.4 49 3.9 NW 56 65 30 35 1015.7 - 0.0
28/01:00pm 7.8 -2.7 -1.0 54 3.4 NW 44 56 24 30 1015.9 - 0.0
28/12:30pm 6.9 -3.9 2.0 71 2.0 NW 48 63 26 34 1016.2 - 0.0
28/12:16pm 7.5 -4.9 1.4 65 2.5 NW 56 59 30 32 1015.8 - 0.0
28/12:00pm 7.7 -0.6 2.2 68 2.3 NW 35 43 19 23 1016.5 1016.7 0.0
28/11:40am 7.1 -0.9 1.7 68 2.2 W 33 52 18 28 1016.8 - 0.0
28/11:30am 7.2 -3.0 1.0 65 2.5 WNW 44 52 24 28 1016.2 - 0.0
28/11:15am 7.4 -2.3 0.4 61 2.8 W 41 48 22 26 1016.6 - 0.0
28/11:00am 7.9 -0.1 0.1 58 3.1 NW 32 39 17 21 1016.2 - 0.0
28/10:30am 7.3 -2.0 0.5 62 2.7 WNW 39 50 21 27 1015.8 - 0.0
28/10:00am 7.3 -1.3 -4.3 43 4.1 W 32 41 17 22 1016.0 - 0.0
28/09:30am 7.3 -2.0 -2.4 50 3.6 W 37 41 20 22 1015.8 - 0.0
28/09:14am 7.0 -3.4 -0.2 60 2.8 NW 44 50 24 27 1015.2 - 0.0
28/09:00am 7.0 -0.5 -1.5 54 3.2 W 28 44 15 24 1015.6 1015.9 7.0
28/08:30am 6.8 -1.7 -1.7 54 3.2 W 33 44 18 24 1015.1 - -
28/08:07am 6.6 -1.5 -0.1 62 2.6 WSW 32 43 17 23 1014.8 - -
28/08:00am 6.5 -2.6 -0.5 61 2.7 WNW 37 50 20 27 1014.6 - -
28/07:58am 6.6 -2.1 -0.7 59 2.8 WNW 35 50 19 27 1014.6 - -
28/07:30am 5.6 -1.1 1.3 74 1.7 WNW 26 32 14 17 1014.5 - -
28/07:00am 5.3 -2.7 0.7 72 1.8 W 32 44 17 24 1014.5 - -
28/06:30am 5.7 -2.9 0.3 68 2.1 WSW 35 48 19 26 1013.7 - -
28/06:09am 6.3 -1.9 0.5 66 2.3 WSW 33 52 18 28 1013.2 - -
28/06:00am 6.3 -2.7 -2.8 52 3.3 W 35 46 19 25 1013.1 1013.3 -
28/05:52am 6.2 -3.3 -4.0 48 3.6 W 37 46 20 25 1012.9 - -
28/05:30am 5.9 -1.4 -0.3 64 2.4 WSW 28 41 15 22 1012.7 - -
28/05:00am 6.1 -2.1 0.2 66 2.3 WSW 33 44 18 24 1012.2 - -
28/04:30am 6.1 -2.1 -1.3 59 2.8 WSW 32 44 17 24 1011.8 - -
28/04:00am 6.1 -2.0 -0.4 63 2.5 WNW 32 43 17 23 1011.2 - -
28/03:36am 5.7 -1.4 1.2 73 1.8 WNW 28 46 15 25 1010.8 - -
28/03:30am 5.7 -1.5 0.9 71 1.9 WNW 28 35 15 19 1010.9 - -
28/03:18am 5.5 -5.8 1.5 75 1.6 WNW 50 61 27 33 1010.7 - -
28/03:03am 6.1 -1.7 1.4 72 1.9 W 32 59 17 32 1010.8 - -
28/03:00am 6.2 -1.9 -0.2 63 2.5 W 32 43 17 23 1010.6 1010.8 -
28/02:30am 5.8 -1.4 0.7 70 2.0 SW 28 39 15 21 1010.4 - -
28/02:00am 5.8 -2.1 1.0 71 1.9 SW 32 41 17 22 1010.2 - -
28/01:49am 6.0 -1.7 2.4 78 1.5 SW 32 37 17 20 1010.1 - -
28/01:30am 5.5 -4.3 2.3 80 1.3 SSW 43 52 23 28 1009.6 - -
28/01:21am 5.5 -3.9 2.3 80 1.3 SSW 41 48 22 26 1009.3 - -
28/01:00am 5.6 -7.0 3.7 87 0.8 S 59 70 32 38 1008.4 - -
28/12:54am 6.1 -4.8 3.5 83 1.1 S 50 70 27 38 1008.3 - -
28/12:30am 5.8 -4.8 3.2 83 1.1 SSW 48 59 26 32 1008.2 - -
28/12:00am 5.7 -6.8 4.3 91 0.6 S 59 67 32 36 1007.3 1007.5 -
 
Date/Time
EST
Temp
°C
App
Temp
°C
Dew
Point
°C
Rel
Hum
%
Delta-T
°C
Wind Press
QNH
hPa
Press
MSL
hPa
Rain since
9am
mm
Dir  Spd
km/h
Gust
km/h
Spd
kts
Gust
kts
27/11:37pm 5.7 -6.3 4.8 94 0.4 S 57 76 31 41 1006.6 - -
27/11:30pm 5.8 -6.2 4.9 94 0.4 S 57 70 31 38 1006.4 - -
27/11:00pm 5.8 -8.1 4.9 94 0.4 S 67 72 36 39 1005.1 - -
27/10:54pm 5.9 -8.3 5.0 94 0.4 S 69 72 37 39 1004.9 - -
27/10:44pm 6.4 -3.3 5.7 95 0.3 SSW 46 70 25 38 1004.9 - -
27/10:42pm 6.6 -2.5 5.7 94 0.4 SSW 43 59 23 32 1005.0 - -
27/10:30pm 6.5 -0.6 5.4 93 0.5 SW 32 41 17 22 1004.5 - -
27/10:00pm 6.6 -1.0 5.9 95 0.3 W 35 54 19 29 1003.9 - -
27/09:56pm 6.7 -0.9 6.0 95 0.3 W 35 54 19 29 1004.0 - -
27/09:54pm 6.7 -1.6 6.3 97 0.2 W 39 54 21 29 1004.1 - -
27/09:33pm 7.6 -1.2 7.2 97 0.2 WSW 43 48 23 26 1003.1 - -
27/09:30pm 7.7 -2.8 7.5 99 0.1 W 52 98 28 53 1003.1 - -
27/09:26pm 8.1 -4.0 7.9 99 0.1 WNW 61 98 33 53 1002.4 - -
27/09:08pm 9.8 -3.9 8.2 90 0.8 NNW 70 91 38 49 1000.8 - -
27/09:06pm 9.9 -4.2 8.1 88 0.9 NNW 72 83 39 45 1000.6 - -
27/09:00pm 9.4 -1.3 8.0 91 0.7 NNW 54 74 29 40 1001.1 1001.3 -
27/08:59pm 9.4 -0.9 8.0 91 0.7 NNW 52 70 28 38 1001.4 - -
27/08:56pm 9.5 -0.9 7.9 90 0.8 NNW 52 61 28 33 1001.7 - -
27/08:30pm 9.5 -5.3 7.0 84 1.2 NNW 74 95 40 51 1001.3 - -
27/08:17pm 9.8 -6.5 7.7 87 1.0 NNW 83 102 45 55 1000.9 - -
27/08:12pm 9.0 -7.7 7.5 90 0.7 NNW 85 100 46 54 1000.7 - -
27/08:00pm 9.4 -2.8 7.3 87 1.0 NNW 61 83 33 45 1001.8 - -
27/07:30pm 9.4 -4.0 7.3 87 1.0 NNW 67 96 36 52 1001.7 - -
27/07:19pm 10.0 -4.8 6.9 81 1.5 NNW 74 95 40 51 1001.9 - -
27/07:16pm 9.7 -6.2 6.8 82 1.4 NNW 80 95 43 51 1001.4 - -
27/07:00pm 10.1 -2.0 7.8 86 1.1 NNW 61 80 33 43 1002.5 - -
27/06:30pm 10.4 -4.5 6.4 76 1.9 NNW 74 95 40 51 1001.7 - -
27/06:00pm 10.8 -4.6 5.9 72 2.3 NNW 76 95 41 51 1002.3 1002.4 -
27/05:30pm 10.3 -5.7 6.7 78 1.7 NNW 80 98 43 53 1001.8 - -
27/05:27pm 10.6 -5.1 6.2 74 2.1 NNW 78 98 42 53 1002.0 - -
27/03:30pm - - - - - - - - - - - - -
27/03:00pm - - - - - - - - - - - - -
27/02:30pm - - - - - - - - - - - - -
27/02:00pm - - - - - - - - - - - - -
27/01:30pm - - - - - - - - - - - - -
27/01:00pm - - - - - - - - - - - - -
27/12:30pm - - - - - - - - - - - - -
27/12:00pm - - - - - - - - - - - - -
27/11:30am - - - - - - - - - - - - -
27/11:00am - - - - - - - - - - - - -
27/10:30am - - - - - - - - - - - - -
27/10:00am - - - - - - - - - - - - -
27/09:31am 10.2 -5.1 6.2 76 1.9 NNW 76 95 41 51 1006.7 - 0.0
27/09:30am 10.1 -5.2 6.3 77 1.8 NNW 76 91 41 49 1007.0 - 0.0
27/09:02am 9.2 -5.5 7.3 88 0.9 NNW 74 96 40 52 1007.9 - 0.0
27/09:00am 9.1 -5.4 7.9 92 0.6 NNW 74 - 40 - - 1007.9 4.0
27/08:56am 9.4 -6.9 7.7 89 0.8 NW 83 96 45 52 1007.4 - 4.2
27/08:30am 9.4 -1.9 7.1 85 1.1 NNW 56 74 30 40 1007.6 - 4.2
27/08:06am 9.4 -1.2 7.1 85 1.1 NNW 52 70 28 38 1008.4 - 4.0
27/08:00am 9.1 -1.4 7.2 88 0.9 NNW 52 65 28 35 1008.2 - 4.0
27/07:38am 9.1 -1.2 6.5 84 1.2 NNW 50 69 27 37 1008.4 - 3.8

Other Formats:

Comma delimited format used in spreadsheet applications
http://www.bom.gov.au/fwo/IDT60801/IDT60801.94962.axf

JavaScript Object Notation format (JSON) in row-major order
http://www.bom.gov.au/fwo/IDT60801/IDT60801.94962.json